Time;durP1;ratioP1;P1;durP2;ratioP2;P2;SDS_P1;SDS_P2;PMS_P1;PMS_P2;Temp;Humidity;BMP_temperature;BMP_pressure;BME280_temperature;BME280_humidity;BME280_pressure;Samples;Min_cycle;Max_cycle;Signal;HPM_P1;HPM_P2
2022/04/01 00:00:38;;;;;;;11.18;4.57;;;;;;;-3.65;78.09;100958.81;5110163;27;20127;-79
2022/04/01 00:03:04;;;;;;;12.45;4.60;;;;;;;-3.66;77.93;100967.88;5101103;27;20039;-76
2022/04/01 00:05:30;;;;;;;10.70;4.85;;;;;;;-3.60;77.63;100958.31;5098516;28;20032;-81
2022/04/01 00:07:56;;;;;;;9.25;4.55;;;;;;;-3.56;77.78;100957.75;5110611;27;20502;-80
2022/04/01 00:10:21;;;;;;;7.43;4.45;;;;;;;-3.56;77.78;100956.91;5127850;27;20046;-80
2022/04/01 00:12:47;;;;;;;8.02;4.10;;;;;;;-3.56;77.92;100962.28;5113654;27;20027;-75
2022/04/01 00:15:14;;;;;;;9.32;4.32;;;;;;;-3.59;77.96;100965.34;5091137;27;20043;-75
2022/04/01 00:17:41;;;;;;;9.70;4.38;;;;;;;-3.61;77.55;100970.88;5075571;27;20035;-75
2022/04/01 00:20:09;;;;;;;9.55;4.00;;;;;;;-3.63;77.83;100964.88;5112842;28;20138;-75
2022/04/01 00:22:35;;;;;;;12.00;4.63;;;;;;;-3.59;77.99;100968.84;5097608;28;20039;-74
2022/04/01 00:25:00;;;;;;;8.20;4.20;;;;;;;-3.53;77.75;100978.84;5132668;27;20031;-74
2022/04/01 00:27:26;;;;;;;9.25;4.28;;;;;;;-3.50;78.07;100973.13;5113046;28;20140;-75
2022/04/01 00:29:52;;;;;;;9.07;3.65;;;;;;;-3.45;78.20;100975.28;5099867;28;20043;-72
2022/04/01 00:32:18;;;;;;;10.32;3.92;;;;;;;-3.53;77.95;100973.47;5092083;28;20048;-73
2022/04/01 00:34:45;;;;;;;7.95;3.58;;;;;;;-3.64;78.11;100971.25;5091240;27;20103;-73
2022/04/01 00:37:11;;;;;;;7.53;4.00;;;;;;;-3.66;78.14;100978.63;5050426;27;20031;-73
2022/04/01 00:39:36;;;;;;;11.13;4.10;;;;;;;-3.66;77.83;100982.13;5110693;27;20047;-73
2022/04/01 00:42:03;;;;;;;8.27;4.18;;;;;;;-3.66;78.17;100978.63;5087905;28;20039;-73
2022/04/01 00:44:31;;;;;;;8.50;4.15;;;;;;;-3.63;78.14;100982.81;5104606;27;20031;-74
2022/04/01 00:47:06;;;;;;;9.43;4.75;;;;;;;-3.65;77.70;100974.91;5097412;27;20048;-73
2022/04/01 00:49:32;;;;;;;10.85;4.40;;;;;;;-3.69;78.08;100984.34;5125190;27;20035;-74
2022/04/01 00:52:03;;;;;;;9.65;4.63;;;;;;;-3.72;77.68;100984.72;5104753;27;20417;-74
2022/04/01 00:54:29;;;;;;;8.82;4.80;;;;;;;-3.71;78.15;100989.06;5120564;27;20043;-73
2022/04/01 00:56:55;;;;;;;9.35;4.63;;;;;;;-3.73;77.69;100978.50;5101859;27;20073;-73
2022/04/01 00:59:22;;;;;;;9.02;4.57;;;;;;;-3.70;78.17;100993.41;5129560;27;20047;-73
2022/04/01 01:01:52;;;;;;;9.65;4.90;;;;;;;-3.66;77.77;100989.34;5108486;27;20062;-72
2022/04/01 01:04:19;;;;;;;11.20;4.43;;;;;;;-3.61;78.32;100986.97;5114186;27;20505;-72
2022/04/01 01:06:56;;;;;;;10.80;4.45;;;;;;;-3.64;78.01;100998.06;5098940;27;20123;-73
2022/04/01 01:09:23;;;;;;;8.73;4.65;;;;;;;-3.62;77.89;100989.84;5109710;28;20070;-72
2022/04/01 01:11:52;;;;;;;7.93;4.25;;;;;;;-3.63;77.92;101001.59;5100966;27;20044;-73
2022/04/01 01:14:31;;;;;;;10.57;4.67;;;;;;;-3.66;77.72;101002.75;5096512;28;20062;-73
2022/04/01 01:16:58;;;;;;;12.20;4.63;;;;;;;-3.71;77.42;100994.41;5132567;27;20272;-73
2022/04/01 01:19:25;;;;;;;11.57;4.78;;;;;;;-3.74;77.65;101002.81;5092190;28;20042;-73
2022/04/01 01:21:53;;;;;;;12.35;5.13;;;;;;;-3.72;77.72;101006.16;5106351;28;20031;-72
2022/04/01 01:24:27;;;;;;;10.15;4.95;;;;;;;-3.68;77.59;101007.47;5109152;27;20122;-72
2022/04/01 01:26:55;;;;;;;10.35;4.82;;;;;;;-3.66;77.18;101013.47;5089366;27;20151;-72
2022/04/01 01:29:29;;;;;;;14.32;5.88;;;;;;;-3.71;77.83;101007.81;5129803;27;20173;-74
2022/04/01 01:31:57;;;;;;;12.93;5.57;;;;;;;-3.72;77.86;101000.78;5103717;28;20035;-73
2022/04/01 01:34:23;;;;;;;10.47;4.63;;;;;;;-3.69;77.58;101011.16;5095395;28;20035;-73
2022/04/01 01:36:50;;;;;;;10.85;4.93;;;;;;;-3.72;77.58;101008.84;5114625;27;20312;-73
2022/04/01 01:39:17;;;;;;;10.02;5.40;;;;;;;-3.77;77.84;101011.22;5105771;28;20130;-73
2022/04/01 01:41:43;;;;;;;11.73;5.10;;;;;;;-3.82;78.10;101014.44;5123135;27;20035;-72
2022/04/01 01:44:10;;;;;;;9.55;5.22;;;;;;;-3.84;77.75;101018.31;5102496;28;20035;-72
2022/04/01 01:46:36;;;;;;;8.43;5.93;;;;;;;-3.87;77.89;101018.66;5100599;28;20494;-73
2022/04/01 01:49:02;;;;;;;9.00;4.53;;;;;;;-3.88;78.02;101014.31;5101967;27;20039;-73
2022/04/01 01:56:56;;;;;;;12.23;5.38;;;;;;;-3.91;78.12;101006.63;5091679;27;20138;-73
2022/04/01 01:59:22;;;;;;;8.98;4.68;;;;;;;-3.91;78.16;101004.78;5091621;27;20505;-73
2022/04/01 02:01:47;;;;;;;10.48;5.45;;;;;;;-3.87;77.81;101006.09;5101959;27;20469;-72
2022/04/01 02:04:13;;;;;;;9.20;4.03;;;;;;;-3.88;78.07;101001.75;5118716;27;20564;-73
2022/04/01 02:06:39;;;;;;;8.30;4.32;;;;;;;-3.87;77.99;101006.09;5091494;28;20050;-73
2022/04/01 02:09:05;;;;;;;9.57;4.22;;;;;;;-3.89;77.76;100997.41;5085499;27;20039;-71
2022/04/01 02:11:31;;;;;;;7.88;4.68;;;;;;;-3.82;77.84;101008.22;5105236;28;20039;-73
2022/04/01 02:13:58;;;;;;;7.35;4.40;;;;;;;-3.81;77.59;101007.25;5091757;28;20051;-73
2022/04/01 02:16:24;;;;;;;8.70;3.90;;;;;;;-3.83;77.86;101009.25;5079349;28;20036;-72
2022/04/01 02:18:50;;;;;;;7.78;5.03;;;;;;;-3.82;77.95;101010.91;5107938;27;20047;-72
2022/04/01 02:21:17;;;;;;;7.88;4.68;;;;;;;-3.87;77.83;101008.78;5098811;27;20516;-73
2022/04/01 02:23:47;;;;;;;7.90;4.55;;;;;;;-3.92;78.16;101011.16;5118657;27;20039;-73
2022/04/01 02:26:17;;;;;;;8.70;4.30;;;;;;;-3.87;78.33;101008.78;5086259;28;20449;-73
2022/04/01 02:28:43;;;;;;;10.60;4.57;;;;;;;-3.85;78.18;101008.59;5123694;27;20555;-73
2022/04/01 02:31:11;;;;;;;8.63;4.57;;;;;;;-3.83;78.27;101011.94;5082389;27;20075;-73
2022/04/01 02:33:56;;;;;;;8.05;4.57;;;;;;;-3.87;78.19;101013.31;5102315;27;20088;-72
2022/04/01 02:36:22;;;;;;;11.07;4.63;;;;;;;-3.89;78.01;101020.69;5056779;28;20044;-74
2022/04/01 02:38:49;;;;;;;7.18;4.15;;;;;;;-3.90;77.72;101005.63;5075176;28;20071;-73
2022/04/01 02:41:16;;;;;;;9.93;5.75;;;;;;;-3.89;77.96;101009.97;5080275;28;20054;-73
2022/04/01 02:43:42;;;;;;;10.00;5.15;;;;;;;-3.92;78.03;101013.84;5090308;27;20488;-73
2022/04/01 02:46:10;;;;;;;8.80;5.25;;;;;;;-3.92;77.97;101013.00;5084483;28;20051;-72
2022/04/01 02:48:45;;;;;;;9.75;5.15;;;;;;;-3.97;77.64;101024.28;5102783;27;20612;-74
2022/04/01 02:51:45;;;;;;;6.70;4.57;;;;;;;-4.02;77.84;101023.94;5075907;27;20130;-73
2022/04/01 02:54:20;;;;;;;7.40;4.93;;;;;;;-4.10;77.96;101027.53;5101129;27;20076;-72
2022/04/01 02:56:47;;;;;;;8.73;4.47;;;;;;;-4.12;78.26;101020.66;5087559;28;20556;-74
2022/04/01 02:59:13;;;;;;;9.88;5.00;;;;;;;-4.14;78.38;101023.53;5128449;27;20047;-72
2022/04/01 03:01:40;;;;;;;6.97;4.00;;;;;;;-4.16;78.45;101025.56;5102087;27;20043;-74
2022/04/01 03:04:10;;;;;;;8.70;4.40;;;;;;;-4.21;78.18;101019.88;5100183;28;20036;-73
2022/04/01 03:06:43;;;;;;;6.82;4.00;;;;;;;-4.21;78.89;101030.59;5125943;27;20042;-72
2022/04/01 03:09:12;;;;;;;8.85;4.45;;;;;;;-4.20;78.70;101032.25;5089918;27;20042;-73
2022/04/01 03:11:43;;;;;;;6.97;4.45;;;;;;;-4.18;78.68;101034.75;5103484;27;20034;-72
2022/04/01 03:14:22;;;;;;;11.93;4.78;;;;;;;-4.17;79.10;101039.94;5099135;28;20409;-73
2022/04/01 03:17:23;;;;;;;7.80;4.10;;;;;;;-4.19;79.14;101036.59;5033456;28;20083;-73
2022/04/01 03:19:49;;;;;;;7.10;3.88;;;;;;;-4.17;79.04;101034.56;5107016;27;20050;-72
2022/04/01 03:22:15;;;;;;;8.85;4.55;;;;;;;-4.16;78.94;101041.63;5100799;28;20035;-73
2022/04/01 03:24:42;;;;;;;8.25;4.55;;;;;;;-4.11;79.19;101049.13;5059073;28;20033;-74
2022/04/01 03:27:08;;;;;;;7.53;3.92;;;;;;;-4.06;78.71;101058.31;5083621;28;20067;-73
2022/04/01 03:29:34;;;;;;;8.15;4.30;;;;;;;-4.04;78.70;101056.28;5110586;28;20035;-74
2022/04/01 03:31:59;;;;;;;8.90;4.10;;;;;;;-4.02;79.26;101059.63;5102270;28;20040;-74
2022/04/01 03:34:26;;;;;;;6.68;4.30;;;;;;;-4.01;78.68;101058.59;5124903;28;20239;-74
2022/04/01 03:36:54;;;;;;;7.63;4.35;;;;;;;-4.03;78.44;101067.84;5090432;28;20151;-73
2022/04/01 03:39:21;;;;;;;7.03;4.22;;;;;;;-4.06;78.20;101066.34;5088872;28;20035;-73
2022/04/01 03:41:50;;;;;;;8.10;4.18;;;;;;;-4.08;78.33;101065.69;5097709;28;20133;-73
2022/04/01 03:44:17;;;;;;;6.47;4.70;;;;;;;-4.04;78.45;101067.00;5086198;28;20077;-73
2022/04/01 03:47:01;;;;;;;7.15;4.43;;;;;;;-3.92;78.04;101058.59;5079146;28;20051;-74
2022/04/01 03:49:30;;;;;;;8.13;4.07;;;;;;;-3.74;78.33;101070.69;5089774;28;20035;-73
2022/04/01 03:51:56;;;;;;;11.70;4.40;;;;;;;-3.52;77.74;101066.34;5083994;28;20515;-73
2022/04/01 03:55:07;;;;;;;8.30;3.80;;;;;;;-3.21;77.45;101057.38;5110070;28;20397;-73
2022/04/01 03:57:55;;;;;;;6.28;3.92;;;;;;;-2.81;76.69;101059.69;5110841;28;20062;-74
2022/04/01 04:00:43;;;;;;;9.40;4.40;;;;;;;-2.44;75.83;101066.00;5095790;28;20036;-74
2022/04/01 04:03:10;;;;;;;8.45;4.57;;;;;;;-2.16;75.08;101064.31;5089842;28;20081;-74
2022/04/01 04:05:37;;;;;;;8.18;4.53;;;;;;;-1.91;73.84;101067.53;5100571;28;20499;-73
2022/04/01 04:08:05;;;;;;;8.27;4.40;;;;;;;-1.63;73.05;101064.94;5079715;28;20032;-72
2022/04/01 04:10:34;;;;;;;7.35;4.35;;;;;;;-1.35;71.80;101073.09;5082426;28;20044;-74
2022/04/01 04:13:18;;;;;;;11.20;4.75;;;;;;;-1.04;70.73;101070.06;5091726;28;20046;-74
2022/04/01 04:16:04;;;;;;;8.63;4.47;;;;;;;-0.79;69.58;101070.44;5061060;28;20036;-73
2022/04/01 04:18:34;;;;;;;8.45;4.70;;;;;;;-0.52;68.49;101076.84;5074389;28;20044;-72
2022/04/01 04:21:11;;;;;;;9.55;5.65;;;;;;;-0.28;67.17;101083.63;5091303;28;20049;-72
2022/04/01 04:23:48;;;;;;;8.07;4.60;;;;;;;-0.05;66.41;101078.75;5086906;28;20409;-73
2022/04/01 04:26:21;;;;;;;9.82;5.28;;;;;;;0.20;65.35;101092.56;5071654;27;20044;-72
2022/04/01 04:28:50;;;;;;;10.32;5.45;;;;;;;0.45;64.74;101095.53;5095226;27;20047;-71
2022/04/01 04:31:55;;;;;;;11.05;6.10;;;;;;;0.74;63.16;101093.53;5104823;27;20519;-73
2022/04/01 04:34:20;;;;;;;;;;;;;;;0.96;63.16;101102.28;5083601;28;20127;-73
2022/04/01 04:36:49;;;;;;;24.02;6.20;;;;;;;1.15;62.37;101093.34;5085409;27;20019;-72
2022/04/01 04:39:29;;;;;;;13.25;5.55;;;;;;;1.34;61.21;101100.63;5085712;27;20468;-72
2022/04/01 04:41:55;;;;;;;10.02;5.65;;;;;;;1.47;60.64;101103.31;5092180;28;20043;-73
2022/04/01 04:44:25;;;;;;;10.88;5.82;;;;;;;1.60;59.83;101102.47;5075128;28;20039;-72
2022/04/01 04:46:52;;;;;;;40.83;9.10;;;;;;;1.79;59.55;101098.06;5075264;28;20570;-73
2022/04/01 04:49:22;;;;;;;10.80;6.13;;;;;;;2.05;59.40;101107.94;5095853;27;20035;-72
2022/04/01 04:51:48;;;;;;;9.63;5.90;;;;;;;2.31;57.79;101107.84;5080526;28;20044;-72
2022/04/01 04:54:27;;;;;;;7.72;5.32;;;;;;;2.58;57.30;101108.53;5094945;28;20039;-72
2022/04/01 04:57:15;;;;;;;8.13;4.70;;;;;;;2.68;56.41;101114.31;5100751;27;20043;-73
2022/04/01 04:59:42;;;;;;;7.38;4.30;;;;;;;2.67;56.03;101109.97;5102658;27;20115;-73
2022/04/01 05:02:12;;;;;;;7.63;4.77;;;;;;;2.70;55.88;101109.53;5096141;28;20043;-73
2022/04/01 05:04:42;;;;;;;9.82;4.55;;;;;;;2.87;55.62;101115.25;5076071;28;20079;-74
2022/04/01 05:07:34;;;;;;;9.60;4.40;;;;;;;2.88;54.71;101116.91;5085197;27;20046;-73
2022/04/01 05:10:27;;;;;;;6.70;3.97;;;;;;;2.86;54.81;101116.31;5100774;27;20038;-74
2022/04/01 05:13:19;;;;;;;4.32;3.15;;;;;;;2.80;54.69;101116.34;5064858;28;20042;-75
2022/04/01 05:16:10;;;;;;;6.97;3.75;;;;;;;2.63;54.98;101113.31;5072163;28;20036;-77
2022/04/01 05:18:47;;;;;;;7.90;4.03;;;;;;;2.39;55.39;101129.25;5067983;28;20452;-73
2022/04/01 05:21:23;;;;;;;6.57;4.15;;;;;;;2.22;55.94;101128.09;5074769;28;20074;-74
2022/04/01 05:24:00;;;;;;;8.00;4.25;;;;;;;2.13;56.20;101123.97;5066789;28;20102;-74
2022/04/01 05:26:52;;;;;;;6.68;4.00;;;;;;;2.16;56.58;101115.41;5085842;28;20152;-74
2022/04/01 05:30:01;;;;;;;8.73;5.22;;;;;;;2.52;56.21;101116.72;5066480;28;20052;-74
2022/04/01 05:32:31;;;;;;;9.40;4.88;;;;;;;3.11;54.90;101118.19;5089816;28;20215;-75
2022/04/01 05:34:57;;;;;;;;;;;;;;;3.75;53.33;101112.41;5101942;27;20054;-74
2022/04/01 05:37:25;;;;;;;7.20;4.57;;;;;;;4.36;51.89;101110.69;5099591;27;19915;-75
2022/04/01 05:39:52;;;;;;;8.77;5.07;;;;;;;4.94;50.68;101110.91;5087189;28;20465;-74
2022/04/01 05:42:20;;;;;;;8.00;5.23;;;;;;;5.37;49.42;101109.78;5077001;28;20047;-74
2022/04/01 05:45:04;;;;;;;7.55;5.90;;;;;;;5.79;48.94;101118.69;5113489;27;20046;-74
2022/04/01 05:47:32;;;;;;;9.50;5.78;;;;;;;6.10;47.97;101113.94;5088455;28;20028;-74
2022/04/01 05:49:59;;;;;;;10.05;5.55;;;;;;;6.37;47.01;101115.06;5075181;28;20043;-74
2022/04/01 05:52:26;;;;;;;9.48;5.55;;;;;;;6.59;45.96;101121.47;5096357;27;20044;-74
2022/04/01 05:54:52;;;;;;;7.75;4.90;;;;;;;6.79;46.03;101118.34;5097403;27;20036;-75
2022/04/01 05:57:20;;;;;;;8.30;4.80;;;;;;;6.99;44.88;101123.34;5096300;27;20042;-75
2022/04/01 05:59:46;;;;;;;7.45;3.83;;;;;;;7.11;44.27;101120.53;5104441;28;20039;-75
2022/04/01 06:02:33;;;;;;;6.22;4.30;;;;;;;7.24;44.25;101128.41;5091838;28;20066;-74
2022/04/01 06:05:45;;;;;;;6.43;4.20;;;;;;;7.47;43.97;101127.44;5071466;27;20036;-74
2022/04/01 06:08:35;;;;;;;9.93;4.60;;;;;;;7.63;44.21;101129.31;5051569;28;20036;-75
2022/04/01 06:11:22;;;;;;;8.15;4.25;;;;;;;7.73;42.99;101134.09;5067572;28;20081;-74
2022/04/01 06:14:14;;;;;;;5.68;3.60;;;;;;;7.84;43.25;101130.47;5095111;27;20089;-76
2022/04/01 06:16:45;;;;;;;8.15;3.35;;;;;;;8.08;43.05;101129.16;5094274;28;20130;-74
2022/04/01 06:19:45;;;;;;;5.13;3.60;;;;;;;8.36;43.12;101130.94;5064604;27;20553;-76
2022/04/01 06:22:17;;;;;;;5.60;3.67;;;;;;;8.59;41.63;101138.03;5076020;28;20127;-75
2022/04/01 06:25:13;;;;;;;5.72;2.90;;;;;;;8.80;41.99;101141.00;5108863;27;20039;-75
2022/04/01 06:27:45;;;;;;;6.85;4.03;;;;;;;8.99;41.49;101139.56;5090813;27;20039;-75
2022/04/01 06:30:13;;;;;;;7.13;4.38;;;;;;;9.11;40.99;101145.72;5094722;28;20039;-75
2022/04/01 06:32:48;;;;;;;8.05;3.90;;;;;;;9.21;40.89;101140.34;5079208;28;20232;-75
2022/04/01 06:35:40;;;;;;;7.25;4.07;;;;;;;9.32;40.54;101153.00;5060936;27;20035;-74
2022/04/01 06:38:27;;;;;;;9.00;4.03;;;;;;;9.47;39.36;101146.84;5088230;28;20040;-74
2022/04/01 06:40:56;;;;;;;8.77;4.03;;;;;;;9.57;39.68;101141.47;5128418;27;20039;-74
2022/04/01 06:43:28;;;;;;;6.60;3.97;;;;;;;9.71;39.78;101143.72;5086618;27;20331;-74
2022/04/01 06:46:12;;;;;;;5.40;4.07;;;;;;;9.85;39.41;101139.44;5108551;27;20556;-75
2022/04/01 06:48:47;;;;;;;6.40;3.53;;;;;;;9.96;39.42;101144.75;5057725;28;20074;-75
2022/04/01 06:51:31;;;;;;;5.30;3.63;;;;;;;10.13;38.81;101143.75;5097500;28;20036;-75
2022/04/01 06:54:16;;;;;;;6.95;3.55;;;;;;;10.35;38.25;101144.44;5106662;27;20039;-75
2022/04/01 06:57:01;;;;;;;5.32;3.42;;;;;;;10.57;38.81;101142.31;5109723;27;20080;-75
2022/04/01 06:59:35;;;;;;;8.35;3.25;;;;;;;10.75;38.02;101142.94;5101070;27;20043;-75
2022/04/01 07:02:01;;;;;;;6.07;3.35;;;;;;;10.86;38.37;101144.63;5111550;27;20036;-76
2022/04/01 07:04:27;;;;;;;5.15;3.40;;;;;;;10.96;38.64;101141.91;5112494;27;20035;-76
2022/04/01 07:06:55;;;;;;;7.35;3.25;;;;;;;11.18;37.22;101136.16;5096843;27;20050;-75
2022/04/01 07:09:22;;;;;;;10.18;4.22;;;;;;;11.31;37.67;101143.06;5117167;27;20047;-76
2022/04/01 07:11:48;;;;;;;6.72;3.45;;;;;;;11.40;37.48;101144.16;5121242;27;20073;-76
2022/04/01 07:14:14;;;;;;;4.90;4.13;;;;;;;11.54;36.68;101150.75;5124149;27;20135;-74
2022/04/01 07:16:40;;;;;;;7.80;3.85;;;;;;;11.69;36.88;101152.66;5087355;28;20593;-76
2022/04/01 07:19:06;;;;;;;6.70;3.47;;;;;;;11.85;36.71;101151.59;5097795;28;20465;-78
2022/04/01 07:21:32;;;;;;;9.40;4.18;;;;;;;11.90;35.99;101159.00;5102041;28;20528;-77
2022/04/01 07:24:00;;;;;;;8.80;4.32;;;;;;;12.02;35.80;101149.34;5112854;27;20126;-76
2022/04/01 07:26:26;;;;;;;9.82;4.07;;;;;;;12.11;35.79;101151.53;5112702;28;20044;-74
2022/04/01 07:28:54;;;;;;;9.85;4.40;;;;;;;12.22;36.24;101145.72;5107788;28;20032;-77
2022/04/01 07:34:05;;;;;;;8.60;3.60;;;;;;;12.44;34.97;101153.63;5094884;28;20180;-76
2022/04/01 07:36:30;;;;;;;8.20;3.97;;;;;;;12.60;35.45;101157.16;5089251;28;20038;-75
2022/04/01 07:38:56;;;;;;;9.45;4.07;;;;;;;12.76;35.34;101150.47;5098062;28;20502;-76
2022/04/01 07:41:21;;;;;;;8.90;4.43;;;;;;;12.95;34.46;101154.22;5126698;28;20429;-74
2022/04/01 07:43:47;;;;;;;10.35;4.90;;;;;;;13.12;34.65;101151.06;5119953;28;20031;-77
2022/04/01 07:46:12;;;;;;;6.80;4.30;;;;;;;13.20;34.29;101160.72;5110896;28;20398;-75
2022/04/01 07:48:38;;;;;;;6.93;4.10;;;;;;;13.40;34.01;101151.47;5124423;28;20035;-75
2022/04/01 07:51:04;;;;;;;8.23;4.43;;;;;;;13.59;33.54;101152.41;5091578;28;20502;-76
2022/04/01 07:53:29;;;;;;;5.85;3.75;;;;;;;13.66;33.55;101158.41;5100070;28;20038;-75
2022/04/01 07:55:55;;;;;;;6.55;3.58;;;;;;;13.75;33.81;101161.38;5114370;28;20125;-76
2022/04/01 07:58:21;;;;;;;6.72;4.35;;;;;;;13.80;33.91;101158.56;5101793;28;20044;-75
2022/04/01 08:00:46;;;;;;;4.95;3.15;;;;;;;13.94;33.04;101165.06;5113944;27;20047;-76
2022/04/01 08:03:12;;;;;;;6.18;3.75;;;;;;;14.12;33.22;101158.81;5101187;27;20067;-76
2022/04/01 08:05:38;;;;;;;7.00;3.38;;;;;;;14.26;33.16;101158.13;5134793;27;20088;-75
2022/04/01 08:08:04;;;;;;;4.70;3.22;;;;;;;14.60;32.11;101158.03;5108141;27;20040;-77
2022/04/01 08:10:29;;;;;;;6.13;3.30;;;;;;;14.80;31.72;101159.69;5084106;28;20044;-75
2022/04/01 08:12:55;;;;;;;9.13;3.65;;;;;;;14.97;31.64;101165.53;5114337;27;20036;-76
2022/04/01 08:15:21;;;;;;;5.82;3.40;;;;;;;15.20;31.55;101169.34;5125253;27;20091;-76
2022/04/01 08:17:46;;;;;;;6.13;2.90;;;;;;;15.50;30.91;101159.75;5120559;27;20530;-75
2022/04/01 08:20:12;;;;;;;6.22;2.50;;;;;;;15.68;30.10;101156.97;5122174;27;20043;-75
2022/04/01 08:22:41;;;;;;;7.30;3.33;;;;;;;15.87;30.00;101158.88;5100688;27;20040;-75
2022/04/01 08:25:07;;;;;;;6.25;2.75;;;;;;;15.70;29.79;101162.22;5082874;27;20528;-76
2022/04/01 08:27:33;;;;;;;3.25;2.17;;;;;;;15.52;29.06;101165.81;5114233;27;20444;-75
2022/04/01 08:29:59;;;;;;;4.70;2.50;;;;;;;15.69;29.14;101166.09;5106798;27;20494;-74
2022/04/01 08:32:26;;;;;;;4.20;2.78;;;;;;;15.93;28.57;101164.00;5108181;27;20039;-75
2022/04/01 08:34:52;;;;;;;8.77;2.97;;;;;;;15.85;28.93;101159.19;5075380;27;20040;-75
2022/04/01 08:37:18;;;;;;;5.47;2.50;;;;;;;15.72;28.80;101165.50;5104400;27;20405;-74
2022/04/01 08:39:45;;;;;;;7.82;3.15;;;;;;;15.62;29.23;101168.44;5098473;27;20031;-74
2022/04/01 08:42:11;;;;;;;5.27;2.97;;;;;;;15.51;28.97;101170.53;5115595;27;20039;-74
2022/04/01 08:44:41;;;;;;;5.50;2.85;;;;;;;15.18;29.29;101172.41;5118170;27;20024;-74
2022/04/01 08:47:10;;;;;;;5.68;3.05;;;;;;;15.04;29.68;101165.97;5101497;27;20042;-73
2022/04/01 08:49:35;;;;;;;5.45;2.95;;;;;;;14.98;29.72;101167.19;5126256;27;20031;-74
2022/04/01 08:52:02;;;;;;;6.63;2.90;;;;;;;15.00;29.36;101164.94;5095893;28;20090;-74
2022/04/01 08:54:34;;;;;;;6.45;2.50;;;;;;;15.19;28.61;101165.75;5097681;28;20040;-74
2022/04/01 08:57:00;;;;;;;8.82;2.35;;;;;;;15.24;28.60;101173.97;5111538;27;20043;-74
2022/04/01 08:59:29;;;;;;;5.63;2.58;;;;;;;15.25;28.42;101174.78;5115134;27;20045;-73
2022/04/01 09:02:05;;;;;;;3.63;2.28;;;;;;;15.05;28.43;101168.44;5117319;27;20058;-73
2022/04/01 09:04:32;;;;;;;3.10;1.83;;;;;;;14.90;28.31;101168.66;5099487;28;20043;-74
2022/04/01 09:07:09;;;;;;;5.30;2.03;;;;;;;14.21;28.49;101170.00;5097400;27;20093;-75
2022/04/01 09:09:34;;;;;;;3.30;2.13;;;;;;;13.72;29.16;101167.47;5095735;28;20067;-74
2022/04/01 09:12:12;;;;;;;4.22;1.90;;;;;;;13.42;29.42;101177.63;5087329;28;20122;-74
2022/04/01 09:14:39;;;;;;;2.88;1.70;;;;;;;12.77;29.53;101173.31;5122068;27;20123;-74
2022/04/01 09:17:05;;;;;;;4.40;2.13;;;;;;;11.76;30.24;101176.03;5113169;27;20065;-74
2022/04/01 09:19:33;;;;;;;5.03;2.22;;;;;;;10.69;32.26;101180.53;5126300;27;20418;-74
2022/04/01 09:22:17;;;;;;;2.90;1.80;;;;;;;9.73;33.41;101177.22;5104857;27;20557;-73
2022/04/01 09:25:03;;;;;;;3.25;1.70;;;;;;;8.94;34.23;101183.31;5122224;27;20679;-74
2022/04/01 09:27:50;;;;;;;2.22;1.60;;;;;;;8.13;35.49;101183.88;5102931;28;20383;-74
2022/04/01 09:30:21;;;;;;;3.42;2.10;;;;;;;7.57;36.43;101180.28;5099340;27;20039;-73
2022/04/01 09:32:49;;;;;;;3.63;1.90;;;;;;;7.07;37.13;101185.69;5108306;27;20516;-74
2022/04/01 09:35:16;;;;;;;3.35;2.08;;;;;;;6.72;37.98;101187.72;5126083;27;20107;-73
2022/04/01 09:37:47;;;;;;;7.63;2.25;;;;;;;6.45;38.07;101180.09;5120609;27;20453;-74
2022/04/01 09:40:17;;;;;;;5.25;2.25;;;;;;;6.27;39.00;101185.72;5113038;27;20048;-74
2022/04/01 09:42:53;;;;;;;3.78;2.47;;;;;;;6.06;39.96;101178.97;5104653;27;20042;-74
2022/04/01 09:45:30;;;;;;;4.85;2.10;;;;;;;5.89;40.02;101176.09;5110021;27;20466;-74
2022/04/01 09:48:18;;;;;;;3.72;2.03;;;;;;;5.56;40.41;101179.41;5106562;27;20091;-74
2022/04/01 09:50:44;;;;;;;2.63;1.70;;;;;;;5.33;40.11;101177.47;5106836;27;20040;-74
2022/04/01 09:53:13;;;;;;;2.80;1.70;;;;;;;5.18;39.01;101182.50;5087873;27;20285;-74
2022/04/01 09:55:42;;;;;;;3.33;1.58;;;;;;;5.03;39.66;101184.81;5094615;28;20459;-74
2022/04/01 09:58:09;;;;;;;6.13;1.55;;;;;;;4.97;39.41;101180.31;5098614;27;20035;-74
2022/04/01 10:00:37;;;;;;;4.85;1.65;;;;;;;4.96;39.62;101182.19;5107076;27;20044;-73
2022/04/01 10:03:04;;;;;;;1.38;1.27;;;;;;;4.90;39.32;101183.13;5110330;27;20038;-74
2022/04/01 10:05:30;;;;;;;1.15;1.05;;;;;;;4.84;38.86;101174.00;5124708;27;20040;-73
2022/04/01 10:07:57;;;;;;;5.95;1.33;;;;;;;4.89;39.55;101180.66;5104511;27;20410;-73
2022/04/01 10:10:25;;;;;;;4.75;1.52;;;;;;;4.95;39.65;101183.25;5095483;28;20043;-72
2022/04/01 10:12:53;;;;;;;6.53;2.40;;;;;;;4.91;40.47;101183.97;5081840;27;20050;-73
2022/04/01 10:15:19;;;;;;;9.50;2.70;;;;;;;4.81;40.90;101182.59;5087937;27;20031;-73
2022/04/01 10:17:45;;;;;;;3.03;1.70;;;;;;;4.76;41.14;101185.19;5114146;27;20051;-73
2022/04/01 10:20:13;;;;;;;4.07;2.35;;;;;;;4.61;41.50;101182.03;5074517;28;20040;-73
2022/04/01 10:22:41;;;;;;;4.47;2.60;;;;;;;4.59;41.80;101183.34;5089135;28;20526;-74
2022/04/01 10:25:18;;;;;;;7.65;2.53;;;;;;;4.54;42.59;101182.13;5076913;27;20034;-75
2022/04/01 10:27:52;;;;;;;10.35;2.53;;;;;;;4.40;41.76;101179.81;5084565;28;20102;-75
2022/04/01 10:30:20;;;;;;;7.03;2.38;;;;;;;4.20;42.25;101186.28;5071730;28;20093;-75
2022/04/01 10:32:47;;;;;;;3.35;1.70;;;;;;;4.10;41.68;101185.16;5087459;28;20044;-76
2022/04/01 10:35:28;;;;;;;2.15;1.63;;;;;;;4.11;40.98;101184.91;5082785;28;20047;-75
2022/04/01 10:37:56;;;;;;;7.20;1.75;;;;;;;4.16;41.09;101189.66;5076815;28;20432;-75
2022/04/01 10:40:22;;;;;;;4.78;1.73;;;;;;;4.22;40.26;101189.63;5089343;28;20511;-75
2022/04/01 10:42:48;;;;;;;5.53;1.80;;;;;;;4.29;40.44;101184.09;5108167;27;20039;-74
2022/04/01 10:45:16;;;;;;;5.88;2.35;;;;;;;4.32;40.74;101189.06;5120275;27;20042;-75
2022/04/01 10:53:33;;;;;;;1.95;1.40;;;;;;;4.35;42.66;101177.78;5102244;28;20036;-75
2022/04/01 10:56:23;;;;;;;3.88;1.60;;;;;;;4.37;42.43;101172.13;5098823;28;20040;-74
2022/04/01 10:59:24;;;;;;;3.92;1.88;;;;;;;4.34;43.16;101175.25;5109535;27;20039;-74
2022/04/01 11:01:53;;;;;;;3.60;1.83;;;;;;;4.33;43.61;101173.59;5107212;27;20565;-80
2022/04/01 11:04:19;;;;;;;;;;;;;;;4.32;43.27;101178.19;5089806;28;20502;-76
2022/04/01 11:07:09;;;;;;;9.98;2.40;;;;;;;4.30;44.21;101164.03;5096300;27;19919;-75
2022/04/01 11:09:47;;;;;;;3.22;2.03;;;;;;;4.28;43.61;101174.28;5124133;27;20039;-74
2022/04/01 11:12:16;;;;;;;3.30;2.00;;;;;;;4.14;44.46;101175.47;5124240;27;20592;-76
2022/04/01 11:17:20;;;;;;;4.80;2.65;;;;;;;4.13;44.43;101180.09;5125855;27;19975;-76
2022/04/01 11:20:04;;;;;;;4.85;2.70;;;;;;;4.13;43.85;101173.81;5120533;27;20065;-75
2022/04/01 11:22:40;;;;;;;5.22;3.03;;;;;;;4.11;44.49;101170.50;5129237;27;20047;-75
2022/04/01 11:25:07;;;;;;;5.88;3.70;;;;;;;4.14;44.55;101167.34;5097946;27;20035;-76
2022/04/01 11:27:34;;;;;;;7.43;2.70;;;;;;;4.22;44.59;101172.50;5124107;28;20043;-76
2022/04/01 11:30:07;;;;;;;9.02;4.18;;;;;;;4.30;44.15;101164.03;5122467;28;20039;-76
2022/04/01 11:32:37;;;;;;;2.38;1.83;;;;;;;4.32;44.02;101164.63;5115755;28;20042;-75
2022/04/01 11:35:07;;;;;;;5.15;2.70;;;;;;;4.34;43.94;101158.97;5108532;27;20035;-76
2022/04/01 11:37:41;;;;;;;4.30;2.22;;;;;;;4.30;43.49;101153.16;5109753;28;20593;-76
2022/04/01 11:40:27;;;;;;;3.97;2.40;;;;;;;4.26;43.40;101160.09;5125324;27;20046;-76
2022/04/01 11:43:00;;;;;;;6.35;2.63;;;;;;;4.19;43.13;101154.75;5132010;27;20043;-76
2022/04/01 11:45:27;;;;;;;9.52;3.53;;;;;;;4.10;42.60;101155.28;5086454;27;20409;-76
2022/04/01 11:47:53;;;;;;;7.43;2.65;;;;;;;4.10;42.81;101152.56;5106914;28;20051;-76
2022/04/01 11:50:22;;;;;;;8.27;2.88;;;;;;;4.11;42.59;101144.19;5129091;27;20056;-76
2022/04/01 11:52:55;;;;;;;4.90;2.05;;;;;;;4.04;42.32;101151.59;5118512;27;20043;-76
2022/04/01 11:55:26;;;;;;;3.38;1.70;;;;;;;3.94;42.53;101149.38;5129802;27;20043;-76
2022/04/01 11:57:53;;;;;;;3.85;2.20;;;;;;;3.90;42.65;101148.16;5124658;27;20604;-77
2022/04/01 12:00:28;;;;;;;7.28;2.22;;;;;;;3.85;42.39;101144.47;5118548;27;20434;-76
2022/04/01 12:02:55;;;;;;;6.20;1.67;;;;;;;3.69;42.18;101145.06;5129818;27;20042;-76
2022/04/01 12:05:22;;;;;;;6.82;1.45;;;;;;;3.60;41.86;101141.78;5102492;27;20031;-75